Strona główna
METAR-TAF:

METAR-TAF

Lotnisko :

Port lotniczy Singapur-Paya Lebar

Singapur, Singapur

Szerokość geograficzna: 01-22N, Długość geograficzna: 103-55E, wysokość: 18 m

Aktualna obserwacja pogody

Raport powstał 49 minut temu, godzina 12:00 UTC
Wiatr 7 kt od wschodnio-północny wschód
Temperatura 29°C
Wilgotność 74%
Ciśnienie 1007 hPa
Widzialność 10 km lub więcej
Mało chmury na wysokości 1800 ft
Przerywane chmury na wysokości 30000 ft

METAR: WSAP 261200Z 06007KT 9999 FEW018 BKN300 29/24 Q1007

czas: 20:49 (12:49 UTC)

Prognoza

Raport powstał 1 godzina i 49 minut temu, godzina 11:00 UTC
Prognoza ważna od 26 godzina 12 UTC do 27 godzina 18 UTC
Wiatr 10 kt od północ
Widzialność 10 km lub więcej
Mało chmury na wysokości 1500 ft

TAF: WSAP 261100Z 2612/2718 35010KT 9999 FEW015

Obserwacja i prognoza pogody dla ponad 4000 lotnisk (raport METAR i TAF).

Dostępne stacje oznaczono żółtymi i czerwonymi punktami na mapie.

Najedź kursorem aby zobaczyć nazwę stacji.

Kliknij aby zobaczyć obserwacje i prognozy pogody.

Aby zmienić mapę: kliknij na zielony przycisk z czarnym krzyżykiem, aby powiększyć; na zielony przycisk z myślnikiem, aby pomniejszyć; na zielone strzałki, aby przejść do map sąsiednich.


METAR-TAF: